Time;durP1;ratioP1;P1;durP2;ratioP2;P2;SDS_P1;SDS_P2;PMS_P1;PMS_P2;Temp;Humidity;BMP_temperature;BMP_pressure;BME280_temperature;BME280_humidity;BME280_pressure;Samples;Min_cycle;Max_cycle;Signal;HPM_P1;HPM_P2
2024/04/24 00:01:03;;;;;;;8.82;2.05;;;4.70;1.00;;;;;;7368743;19;20576;-62
2024/04/24 00:03:29;;;;;;;6.30;1.65;;;4.70;1.00;;;;;;7362614;19;20014;-62
2024/04/24 00:05:55;;;;;;;9.85;1.85;;;4.70;1.00;;;;;;7371896;19;20018;-63
2024/04/24 00:08:21;;;;;;;10.00;2.03;;;4.60;1.00;;;;;;7373204;19;20087;-62
2024/04/24 00:10:51;;;;;;;13.07;2.35;;;4.60;1.00;;;;;;7381505;19;20777;-63
2024/04/24 00:13:17;;;;;;;7.40;1.65;;;4.60;1.00;;;;;;7371712;19;20069;-62
2024/04/24 00:15:43;;;;;;;6.68;1.90;;;4.60;1.00;;;;;;7385594;19;20387;-63
2024/04/24 00:18:10;;;;;;;7.00;2.00;;;4.60;1.00;;;;;;7380270;19;20018;-63
2024/04/24 00:20:36;;;;;;;7.72;1.40;;;4.60;1.00;;;;;;7380980;19;20148;-62
2024/04/24 00:23:03;;;;;;;6.32;1.50;;;4.50;1.00;;;;;;7374694;19;20022;-63
2024/04/24 00:25:30;;;;;;;6.13;1.95;;;4.50;1.00;;;;;;7379075;19;20017;-62
2024/04/24 00:27:56;;;;;;;5.40;1.45;;;4.50;1.00;;;;;;7379746;19;20015;-62
2024/04/24 00:30:23;;;;;;;7.35;1.48;;;4.50;1.00;;;;;;7376652;19;20019;-62
2024/04/24 00:32:49;;;;;;;5.30;1.30;;;4.50;1.00;;;;;;7377104;19;20753;-63
2024/04/24 00:35:15;;;;;;;4.57;1.45;;;4.50;1.00;;;;;;7379830;19;20018;-62
2024/04/24 00:37:41;;;;;;;6.68;1.40;;;4.50;1.00;;;;;;7379361;19;20053;-62
2024/04/24 00:40:08;;;;;;;4.43;1.35;;;4.50;1.00;;;;;;7377659;19;20102;-62
2024/04/24 00:42:34;;;;;;;6.82;1.60;;;4.50;1.00;;;;;;7381313;19;20023;-64
2024/04/24 00:45:01;;;;;;;6.80;1.58;;;4.40;1.00;;;;;;7387133;19;20367;-63
2024/04/24 00:47:29;;;;;;;8.50;1.52;;;4.40;1.00;;;;;;7385961;19;20022;-63
2024/04/24 00:49:58;;;;;;;4.90;1.38;;;4.30;1.00;;;;;;7388283;19;20025;-64
2024/04/24 00:52:24;;;;;;;5.22;1.58;;;4.40;1.00;;;;;;7386648;19;20016;-63
2024/04/24 00:54:50;;;;;;;6.75;1.73;;;4.40;1.00;;;;;;7385244;19;20021;-63
2024/04/24 00:57:17;;;;;;;10.27;2.45;;;4.40;1.00;;;;;;7383592;19;20078;-64
2024/04/24 00:59:43;;;;;;;5.60;1.60;;;4.40;99.90;;;;;;7384283;19;20015;-63
2024/04/24 01:02:09;;;;;;;8.60;2.70;;;4.40;99.90;;;;;;7387509;19;20023;-63
2024/04/24 01:04:37;;;;;;;7.28;1.63;;;4.30;99.90;;;;;;7379265;19;20033;-63
2024/04/24 01:07:03;;;;;;;10.00;2.00;;;4.30;99.90;;;;;;7389349;19;20062;-63
2024/04/24 01:09:29;;;;;;;8.55;1.95;;;4.30;99.90;;;;;;7388082;19;20881;-64
2024/04/24 01:11:55;;;;;;;9.82;1.80;;;4.10;99.90;;;;;;7388145;19;20538;-63
2024/04/24 01:14:21;;;;;;;10.75;2.08;;;4.10;1.00;;;;;;7386238;19;20483;-63
2024/04/24 01:16:49;;;;;;;7.75;1.52;;;4.10;1.00;;;;;;7389132;19;20025;-63
2024/04/24 01:19:46;;;;;;;8.07;1.90;;;4.00;1.00;;;;;;7385800;19;20010;-64
2024/04/24 01:22:24;;;;;;;10.93;2.38;;;3.90;1.00;;;;;;7380872;19;20125;-63
2024/04/24 01:25:29;;;;;;;6.38;2.30;;;3.90;17.10;;;;;;7382956;19;20015;-63
2024/04/24 01:27:56;;;;;;;9.77;1.88;;;3.90;54.70;;;;;;7385108;19;20014;-64
2024/04/24 01:30:22;;;;;;;7.80;2.00;;;3.90;45.80;;;;;;7387255;19;20014;-63
2024/04/24 01:32:48;;;;;;;13.77;2.00;;;3.90;51.10;;;;;;7387618;19;20482;-63
2024/04/24 01:35:15;;;;;;;7.07;1.95;;;3.80;81.50;;;;;;7380916;19;20666;-62
2024/04/24 01:37:41;;;;;;;10.85;2.08;;;3.80;75.80;;;;;;7375944;19;20064;-62
2024/04/24 01:40:07;;;;;;;9.27;1.70;;;3.90;62.10;;;;;;7377555;19;20019;-62
2024/04/24 01:42:33;;;;;;;6.45;2.50;;;3.90;74.60;;;;;;7379961;19;20467;-63
2024/04/24 01:44:59;;;;;;;13.25;2.10;;;3.90;43.50;;;;;;7376717;19;20022;-62
2024/04/24 01:47:25;;;;;;;12.30;2.17;;;3.90;25.00;;;;;;7377184;19;20546;-62
2024/04/24 01:49:52;;;;;;;8.60;1.80;;;3.80;1.00;;;;;;7373675;19;20922;-62
2024/04/24 01:52:18;;;;;;;6.82;2.00;;;3.90;1.00;;;;;;7375244;19;20010;-62
2024/04/24 01:54:44;;;;;;;6.90;1.98;;;3.90;1.00;;;;;;7375332;19;20018;-62
2024/04/24 01:57:10;;;;;;;5.00;1.38;;;4.00;1.00;;;;;;7376279;19;20363;-62
2024/04/24 01:59:36;;;;;;;9.60;2.00;;;3.90;1.00;;;;;;7376888;19;20018;-62
2024/04/24 02:02:02;;;;;;;7.18;1.83;;;4.10;1.00;;;;;;7375181;19;20014;-62
2024/04/24 02:04:29;;;;;;;5.90;1.75;;;4.10;1.00;;;;;;7373731;19;20011;-62
2024/04/24 02:06:55;;;;;;;5.82;1.77;;;4.20;1.00;;;;;;7378827;19;20022;-62
2024/04/24 02:09:21;;;;;;;9.70;1.60;;;4.20;1.00;;;;;;7373858;19;20494;-62
2024/04/24 02:11:47;;;;;;;8.20;1.80;;;4.20;1.00;;;;;;7378880;19;20026;-62
2024/04/24 02:14:13;;;;;;;6.18;1.48;;;4.20;1.00;;;;;;7373128;19;20018;-62
2024/04/24 02:16:40;;;;;;;6.43;1.65;;;4.20;1.00;;;;;;7376244;19;20018;-62
2024/04/24 02:19:06;;;;;;;7.90;1.85;;;4.20;3.70;;;;;;7373728;19;20021;-62
2024/04/24 02:21:32;;;;;;;6.55;1.50;;;4.10;17.80;;;;;;7375946;19;20006;-62
2024/04/24 02:24:00;;;;;;;8.55;2.33;;;4.10;79.30;;;;;;7375763;19;20094;-62
2024/04/24 02:26:26;;;;;;;7.95;2.05;;;4.10;96.80;;;;;;7378046;19;20014;-62
2024/04/24 02:28:53;;;;;;;9.32;2.25;;;4.10;99.90;;;;;;7375887;19;20022;-62
2024/04/24 02:31:19;;;;;;;11.77;2.38;;;4.10;99.90;;;;;;7382415;19;20424;-63
2024/04/24 02:33:45;;;;;;;7.45;2.20;;;4.10;99.90;;;;;;7387437;19;20018;-63
2024/04/24 02:36:13;;;;;;;12.15;2.08;;;4.10;99.90;;;;;;7385870;19;20018;-63
2024/04/24 02:38:40;;;;;;;11.43;2.28;;;4.10;99.90;;;;;;7384834;19;20112;-64
2024/04/24 02:41:06;;;;;;;13.65;2.67;;;4.10;99.90;;;;;;7386254;19;20488;-63
2024/04/24 02:43:32;;;;;;;10.00;2.08;;;4.10;99.90;;;;;;7384419;19;20025;-64
2024/04/24 02:45:58;;;;;;;12.52;1.95;;;4.10;99.90;;;;;;7384006;19;20022;-63
2024/04/24 02:48:27;;;;;;;9.50;2.72;;;4.10;99.90;;;;;;7379036;19;20022;-63
2024/04/24 02:50:54;;;;;;;11.52;2.55;;;4.10;99.90;;;;;;7376260;19;20014;-62
2024/04/24 02:53:20;;;;;;;11.52;2.67;;;4.10;99.90;;;;;;7374561;19;20632;-62
2024/04/24 02:55:47;;;;;;;13.32;2.55;;;4.10;99.90;;;;;;7372847;19;20014;-63
2024/04/24 02:58:13;;;;;;;11.57;2.63;;;4.20;99.90;;;;;;7384753;19;20026;-64
2024/04/24 03:00:39;;;;;;;9.57;2.50;;;4.10;99.90;;;;;;7380042;19;20026;-63
2024/04/24 03:03:06;;;;;;;9.95;2.08;;;4.00;99.90;;;;;;7376196;19;20388;-63
2024/04/24 03:05:32;;;;;;;8.82;2.55;;;4.00;99.90;;;;;;7370527;19;20415;-62
2024/04/24 03:07:58;;;;;;;11.68;3.13;;;4.00;99.90;;;;;;7377261;19;20710;-62
2024/04/24 03:10:24;;;;;;;10.10;2.45;;;4.00;99.90;;;;;;7373869;19;20018;-62
2024/04/24 03:13:10;;;;;;;13.55;2.65;;;3.90;99.90;;;;;;7372638;19;20018;-62
2024/04/24 03:15:36;;;;;;;10.57;2.42;;;3.90;99.90;;;;;;7369272;19;20026;-62
2024/04/24 03:18:02;;;;;;;7.95;2.00;;;4.00;99.90;;;;;;7377546;19;20026;-63
2024/04/24 03:20:29;;;;;;;6.95;2.20;;;3.90;99.90;;;;;;7383340;19;20014;-63
2024/04/24 03:22:55;;;;;;;8.77;2.25;;;4.00;99.90;;;;;;7385765;19;20031;-63
2024/04/24 03:25:21;;;;;;;12.20;1.92;;;4.00;99.90;;;;;;7381287;19;20014;-63
2024/04/24 03:27:47;;;;;;;8.93;1.92;;;4.00;99.90;;;;;;7384111;19;20022;-63
2024/04/24 03:30:14;;;;;;;7.97;2.17;;;4.00;99.90;;;;;;7386827;19;20036;-63
2024/04/24 03:32:40;;;;;;;4.63;1.50;;;3.90;99.90;;;;;;7382128;19;20014;-63
2024/04/24 03:35:08;;;;;;;5.30;1.30;;;3.90;99.90;;;;;;7380875;19;20014;-63
2024/04/24 03:37:34;;;;;;;10.43;1.88;;;3.80;99.90;;;;;;7383048;19;20026;-63
2024/04/24 03:40:00;;;;;;;11.02;2.10;;;3.90;99.90;;;;;;7386851;19;20025;-63
2024/04/24 03:42:26;;;;;;;6.47;1.83;;;3.80;99.90;;;;;;7383157;19;20024;-65
2024/04/24 03:44:55;;;;;;;9.73;1.77;;;3.80;99.90;;;;;;7384786;19;20089;-63
2024/04/24 03:47:21;;;;;;;7.28;1.70;;;3.80;99.90;;;;;;7382756;19;20041;-63
2024/04/24 03:49:47;;;;;;;4.30;1.33;;;3.80;99.90;;;;;;7381102;19;20462;-63
2024/04/24 03:52:13;;;;;;;8.82;1.80;;;3.70;99.90;;;;;;7379676;19;20092;-63
2024/04/24 03:54:40;;;;;;;8.10;1.73;;;3.70;99.90;;;;;;7379451;19;20019;-63
2024/04/24 03:57:07;;;;;;;7.90;1.75;;;3.70;99.90;;;;;;7379829;19;20014;-62
2024/04/24 03:59:33;;;;;;;6.25;1.52;;;3.60;99.90;;;;;;7381375;19;20757;-63
2024/04/24 04:02:00;;;;;;;6.57;1.60;;;3.60;99.90;;;;;;7376024;19;20022;-62
2024/04/24 04:04:26;;;;;;;10.38;2.20;;;3.60;99.90;;;;;;7373122;19;20030;-62
2024/04/24 04:06:53;;;;;;;10.55;2.00;;;3.60;99.90;;;;;;7378626;19;20023;-63
2024/04/24 04:09:24;;;;;;;7.32;2.25;;;3.50;99.90;;;;;;7390058;19;20335;-63
2024/04/24 04:11:50;;;;;;;12.65;2.05;;;3.50;99.90;;;;;;7375454;19;20015;-62
2024/04/24 04:14:16;;;;;;;11.55;2.28;;;3.60;99.90;;;;;;7375625;19;20052;-63
2024/04/24 04:16:42;;;;;;;9.73;2.15;;;3.60;99.90;;;;;;7372433;19;20014;-62
2024/04/24 04:19:08;;;;;;;8.73;2.20;;;3.60;99.90;;;;;;7373918;19;20022;-63
2024/04/24 04:21:35;;;;;;;8.35;2.10;;;3.70;99.90;;;;;;7386644;19;20596;-63
2024/04/24 04:24:01;;;;;;;10.02;2.35;;;3.70;99.90;;;;;;7386902;19;20098;-63
2024/04/24 04:26:27;;;;;;;10.52;2.85;;;3.80;99.90;;;;;;7388861;19;20018;-63
2024/04/24 04:28:53;;;;;;;5.95;2.10;;;3.80;99.90;;;;;;7388778;19;20078;-64
2024/04/24 04:31:20;;;;;;;8.13;2.33;;;3.90;99.90;;;;;;7382844;19;20856;-63
2024/04/24 04:33:46;;;;;;;10.68;2.05;;;4.00;99.90;;;;;;7381417;19;20482;-63
2024/04/24 04:36:12;;;;;;;15.30;2.90;;;4.00;99.90;;;;;;7379134;19;20018;-63
2024/04/24 04:38:39;;;;;;;13.65;3.17;;;4.00;99.90;;;;;;7380906;19;20069;-63
2024/04/24 04:41:05;;;;;;;11.20;2.30;;;4.00;99.90;;;;;;7380373;19;20092;-63
2024/04/24 04:43:31;;;;;;;11.98;2.55;;;4.10;99.90;;;;;;7377612;19;20010;-64
2024/04/24 04:45:58;;;;;;;13.20;3.70;;;4.10;99.90;;;;;;7377192;19;20509;-62
2024/04/24 04:48:24;;;;;;;11.07;2.47;;;4.10;99.90;;;;;;7369423;19;20038;-66
2024/04/24 04:50:50;;;;;;;8.90;2.70;;;4.20;99.90;;;;;;7368832;19;20586;-63
2024/04/24 04:53:16;;;;;;;9.45;2.47;;;4.20;99.90;;;;;;7370558;19;20021;-63
2024/04/24 04:55:42;;;;;;;13.45;2.80;;;4.30;99.90;;;;;;7372447;19;20022;-62
2024/04/24 04:58:08;;;;;;;12.80;2.60;;;4.30;99.90;;;;;;7381607;19;20014;-62
2024/04/24 05:00:35;;;;;;;15.65;4.00;;;4.40;99.90;;;;;;7375821;19;20439;-62
2024/04/24 05:03:01;;;;;;;12.30;2.65;;;4.50;99.90;;;;;;7378694;19;20046;-62
2024/04/24 05:05:27;;;;;;;12.10;2.53;;;4.50;99.90;;;;;;7373165;19;20010;-63
2024/04/24 05:07:53;;;;;;;10.82;2.50;;;4.60;99.90;;;;;;7380159;19;20091;-63
2024/04/24 05:10:19;;;;;;;10.20;2.67;;;4.60;99.90;;;;;;7379288;19;20034;-62
2024/04/24 05:12:46;;;;;;;14.95;3.22;;;4.60;99.90;;;;;;7375189;19;20179;-63
2024/04/24 05:15:12;;;;;;;12.73;3.33;;;4.70;99.90;;;;;;7379891;19;20029;-62
2024/04/24 05:17:41;;;;;;;9.63;3.63;;;4.80;99.90;;;;;;7380732;19;20518;-59
2024/04/24 05:20:10;;;;;;;9.80;2.65;;;4.80;99.90;;;;;;7376718;19;20027;-63
2024/04/24 05:22:46;;;;;;;12.40;2.42;;;4.90;99.90;;;;;;7378236;19;20483;-63
2024/04/24 05:25:21;;;;;;;11.35;2.80;;;4.90;99.90;;;;;;7379022;19;21003;-63
2024/04/24 05:30:33;;;;;;;8.40;2.30;;;5.00;99.90;;;;;;7378442;19;20435;-62
2024/04/24 05:33:01;;;;;;;3.75;1.70;;;5.00;99.90;;;;;;7379080;19;20089;-63
2024/04/24 05:35:27;;;;;;;6.63;1.52;;;4.90;99.90;;;;;;7378347;19;20030;-69
2024/04/24 05:37:54;;;;;;;3.55;1.40;;;4.80;99.90;;;;;;7379056;19;20502;-63
2024/04/24 05:40:20;;;;;;;2.35;1.00;;;4.80;99.90;;;;;;7386128;19;20012;-63
2024/04/24 05:42:46;;;;;;;7.32;1.77;;;4.70;99.90;;;;;;7391433;19;20015;-63
2024/04/24 05:45:12;;;;;;;3.17;1.20;;;4.60;99.90;;;;;;7378162;19;20022;-63
2024/04/24 05:47:39;;;;;;;4.32;0.93;;;4.60;99.90;;;;;;7373685;19;20031;-64
2024/04/24 05:50:06;;;;;;;3.40;0.90;;;4.50;99.90;;;;;;7375381;19;20025;-63
2024/04/24 05:52:32;;;;;;;3.05;1.10;;;4.40;99.90;;;;;;7376709;19;20010;-64
2024/04/24 05:54:58;;;;;;;2.47;1.08;;;4.40;99.90;;;;;;7376958;19;20022;-63
2024/04/24 05:57:24;;;;;;;2.42;1.10;;;4.40;99.90;;;;;;7377390;19;20037;-63
2024/04/24 05:59:50;;;;;;;2.50;1.15;;;4.50;99.90;;;;;;7378079;19;20018;-64
2024/04/24 06:02:16;;;;;;;1.75;1.00;;;4.50;99.90;;;;;;7377120;19;20384;-63
2024/04/24 06:04:43;;;;;;;4.18;1.48;;;4.40;99.90;;;;;;7375683;19;20130;-63
2024/04/24 06:07:12;;;;;;;5.22;1.17;;;4.50;99.90;;;;;;7377132;19;20423;-63
2024/04/24 06:09:39;;;;;;;3.67;1.35;;;4.60;99.90;;;;;;7377172;19;20021;-63
2024/04/24 06:12:08;;;;;;;3.47;1.25;;;4.60;99.90;;;;;;7375444;19;20102;-64
2024/04/24 06:14:34;;;;;;;3.28;1.13;;;4.60;99.90;;;;;;7376167;19;20106;-62
2024/04/24 06:17:00;;;;;;;3.28;1.20;;;4.70;99.90;;;;;;7374834;19;20049;-62
2024/04/24 06:19:27;;;;;;;4.93;1.40;;;4.70;99.90;;;;;;7376580;19;20090;-62
2024/04/24 06:21:53;;;;;;;4.05;1.40;;;4.90;99.90;;;;;;7374777;19;20947;-62
2024/04/24 06:24:19;;;;;;;4.03;1.40;;;4.90;99.90;;;;;;7375372;19;20014;-62
2024/04/24 06:26:45;;;;;;;4.25;1.10;;;5.00;99.90;;;;;;7375617;19;20082;-62
2024/04/24 06:29:12;;;;;;;5.47;1.40;;;5.00;99.90;;;;;;7382998;19;20025;-62
2024/04/24 06:31:42;;;;;;;5.07;1.45;;;5.10;99.90;;;;;;7389550;19;20021;-63
2024/04/24 06:34:11;;;;;;;5.63;1.70;;;5.10;99.90;;;;;;7387885;19;20078;-63
2024/04/24 06:36:37;;;;;;;6.57;1.55;;;5.20;99.90;;;;;;7390025;19;20042;-62
2024/04/24 06:39:05;;;;;;;5.05;1.30;;;5.20;99.90;;;;;;7388736;19;20018;-63
2024/04/24 06:41:31;;;;;;;4.22;1.33;;;5.10;99.90;;;;;;7387550;19;20430;-64
2024/04/24 06:43:57;;;;;;;4.82;1.75;;;5.20;99.90;;;;;;7387553;19;20016;-62
2024/04/24 06:46:23;;;;;;;4.78;1.50;;;5.20;99.90;;;;;;7389725;19;20019;-63
2024/04/24 06:48:50;;;;;;;3.88;1.38;;;5.30;99.90;;;;;;7386438;19;20011;-62
2024/04/24 06:51:16;;;;;;;6.50;1.35;;;5.40;99.90;;;;;;7387985;19;20010;-63
2024/04/24 06:53:42;;;;;;;5.90;1.45;;;5.60;99.90;;;;;;7387526;19;20266;-63
2024/04/24 06:56:08;;;;;;;6.28;1.50;;;5.90;99.90;;;;;;7388765;19;20022;-69
2024/04/24 06:58:36;;;;;;;6.25;1.83;;;6.40;99.90;;;;;;7383846;19;20027;-62
2024/04/24 07:01:05;;;;;;;7.45;1.75;;;6.90;99.90;;;;;;7373990;19;20042;-62
2024/04/24 07:03:32;;;;;;;6.72;1.60;;;7.20;99.90;;;;;;7378708;19;20015;-63
2024/04/24 07:05:58;;;;;;;8.85;1.85;;;7.30;99.90;;;;;;7388359;19;20042;-63
2024/04/24 07:08:25;;;;;;;7.07;1.75;;;7.50;99.90;;;;;;7387071;19;20010;-63
2024/04/24 07:10:51;;;;;;;4.70;1.38;;;7.80;99.90;;;;;;7386536;19;20014;-63
2024/04/24 07:13:17;;;;;;;9.13;2.28;;;7.90;99.90;;;;;;7387423;19;20014;-63
2024/04/24 07:15:44;;;;;;;7.00;1.73;;;8.20;70.50;;;;;;7385856;19;20006;-63
2024/04/24 07:18:10;;;;;;;5.18;1.73;;;8.40;23.80;;;;;;7382434;19;20014;-63
2024/04/24 07:20:36;;;;;;;8.02;1.70;;;8.50;1.00;;;;;;7387197;19;20033;-63
2024/04/24 07:23:02;;;;;;;4.55;1.40;;;8.90;1.00;;;;;;7383901;19;20015;-63
2024/04/24 07:25:29;;;;;;;4.88;1.33;;;8.70;16.00;;;;;;7381771;19;20025;-63
2024/04/24 07:27:55;;;;;;;7.00;2.42;;;8.90;99.90;;;;;;7379510;19;20014;-62
2024/04/24 07:30:22;;;;;;;4.60;1.33;;;9.10;99.90;;;;;;7374526;19;20035;-62
2024/04/24 07:32:48;;;;;;;5.53;2.33;;;9.30;99.90;;;;;;7377074;19;20022;-64
2024/04/24 07:35:16;;;;;;;5.18;1.42;;;9.30;99.90;;;;;;7376860;19;20025;-62
2024/04/24 07:37:42;;;;;;;4.32;1.70;;;9.10;99.90;;;;;;7373818;19;20059;-62
2024/04/24 07:40:09;;;;;;;6.53;1.52;;;8.70;99.90;;;;;;7376181;19;20014;-62
2024/04/24 07:42:38;;;;;;;7.05;1.45;;;8.20;99.90;;;;;;7380526;19;20035;-63
2024/04/24 07:45:06;;;;;;;6.72;1.48;;;7.90;99.90;;;;;;7386311;19;20014;-63
2024/04/24 07:47:32;;;;;;;3.90;1.10;;;7.50;1.00;;;;;;7373531;19;20021;-63
2024/04/24 07:49:58;;;;;;;3.47;1.52;;;7.00;1.00;;;;;;7372153;19;20793;-63
2024/04/24 07:52:25;;;;;;;10.52;1.70;;;7.00;20.90;;;;;;7371974;19;20020;-62
2024/04/24 07:54:51;;;;;;;2.72;1.20;;;6.90;95.20;;;;;;7373352;19;20349;-62
2024/04/24 07:57:18;;;;;;;5.05;1.13;;;6.80;45.90;;;;;;7374547;19;20022;-62
2024/04/24 07:59:44;;;;;;;5.70;1.20;;;6.70;81.00;;;;;;7371067;19;20015;-62
2024/04/24 08:02:10;;;;;;;3.47;0.90;;;6.70;95.20;;;;;;7379800;19;20015;-63
2024/04/24 08:04:36;;;;;;;1.27;0.73;;;6.70;71.00;;;;;;7384007;19;20018;-63
2024/04/24 08:07:02;;;;;;;0.75;0.47;;;7.00;1.00;;;;;;7385765;19;20078;-63
2024/04/24 08:09:32;;;;;;;1.27;0.50;;;7.10;1.00;;;;;;7383284;19;20021;-64
2024/04/24 08:11:59;;;;;;;1.35;0.60;;;7.80;1.00;;;;;;7385089;19;20015;-63
2024/04/24 08:14:25;;;;;;;2.63;0.70;;;8.50;99.90;;;;;;7383240;19;20015;-63
2024/04/24 08:16:52;;;;;;;2.38;0.80;;;9.10;99.90;;;;;;7372277;19;20030;-63
2024/04/24 08:19:18;;;;;;;3.58;0.98;;;9.70;99.90;;;;;;7379156;19;20419;-63
2024/04/24 08:21:44;;;;;;;7.45;1.20;;;9.50;99.90;;;;;;7369911;19;20014;-63
2024/04/24 08:24:12;;;;;;;5.03;1.10;;;9.50;1.00;;;;;;7382885;19;20045;-64
2024/04/24 08:26:38;;;;;;;3.15;0.93;;;9.10;99.90;;;;;;7376468;19;20018;-64
2024/04/24 08:29:04;;;;;;;4.80;1.20;;;7.90;1.00;;;;;;7382850;19;20010;-63
2024/04/24 08:31:31;;;;;;;4.05;1.27;;;7.70;99.90;;;;;;7384029;19;20017;-62
2024/04/24 08:33:57;;;;;;;3.97;0.82;;;7.60;1.00;;;;;;7380938;19;20379;-62
2024/04/24 08:36:24;;;;;;;2.88;0.80;;;7.50;1.00;;;;;;7377125;19;20078;-63
2024/04/24 08:38:50;;;;;;;3.58;0.93;;;7.50;18.90;;;;;;7378991;19;20586;-63
2024/04/24 08:41:16;;;;;;;2.20;0.70;;;7.50;21.20;;;;;;7391612;19;20033;-61
2024/04/24 08:43:46;;;;;;;2.22;0.70;;;7.40;1.00;;;;;;7378809;19;20031;-61
2024/04/24 08:46:13;;;;;;;1.17;0.50;;;7.30;1.00;;;;;;7388474;19;20098;-66
2024/04/24 08:48:47;;;;;;;4.93;0.95;;;7.40;11.60;;;;;;7388956;19;20022;-63
2024/04/24 08:51:13;;;;;;;4.15;0.77;;;7.30;1.00;;;;;;7391258;19;20498;-63
2024/04/24 08:53:54;;;;;;;2.38;0.80;;;7.90;1.00;;;;;;7389910;19;20021;-64
2024/04/24 08:56:28;;;;;;;3.90;0.80;;;8.70;1.00;;;;;;7390699;19;20015;-64
2024/04/24 08:58:59;;;;;;;3.80;0.85;;;9.70;1.00;;;;;;7389802;19;20011;-64
2024/04/24 09:01:29;;;;;;;3.77;0.90;;;9.80;1.00;;;;;;7390164;19;20021;-64
2024/04/24 09:04:05;;;;;;;4.57;1.02;;;9.70;99.90;;;;;;7388826;19;20014;-64
2024/04/24 09:06:33;;;;;;;2.53;0.50;;;9.30;1.00;;;;;;7388450;19;20541;-63
2024/04/24 09:09:00;;;;;;;7.03;1.33;;;8.50;1.00;;;;;;7378870;19;20027;-63
2024/04/24 09:11:26;;;;;;;5.18;0.98;;;8.40;99.90;;;;;;7382741;19;20027;-63
2024/04/24 09:13:53;;;;;;;3.40;1.08;;;8.50;99.90;;;;;;7388273;19;20011;-64
2024/04/24 09:16:21;;;;;;;3.45;1.00;;;8.30;99.90;;;;;;7392230;19;20031;-64
2024/04/24 09:19:06;;;;;;;4.68;0.85;;;8.40;99.90;;;;;;7388275;19;20014;-64
2024/04/24 09:21:32;;;;;;;4.30;1.13;;;8.30;99.90;;;;;;7389837;19;20035;-63
2024/04/24 09:23:59;;;;;;;6.40;0.90;;;8.40;1.00;;;;;;7386470;19;20033;-63
2024/04/24 09:26:26;;;;;;;3.95;1.10;;;8.50;1.00;;;;;;7389527;19;20049;-63
2024/04/24 09:28:52;;;;;;;4.68;1.15;;;8.50;1.00;;;;;;7382930;19;20109;-62
2024/04/24 09:31:18;;;;;;;6.80;1.25;;;8.30;1.00;;;;;;7379018;19;20018;-62
2024/04/24 09:33:45;;;;;;;6.43;1.38;;;8.40;1.00;;;;;;7383046;19;20011;-64
2024/04/24 09:36:11;;;;;;;10.63;1.75;;;8.50;1.00;;;;;;7377621;19;20082;-63
2024/04/24 09:38:41;;;;;;;7.15;1.58;;;9.00;1.00;;;;;;7377845;19;20054;-63
2024/04/24 09:41:09;;;;;;;4.15;1.10;;;9.60;1.00;;;;;;7374371;19;20645;-63
2024/04/24 09:43:36;;;;;;;5.38;1.42;;;9.90;99.90;;;;;;7376833;19;20097;-63
2024/04/24 09:46:03;;;;;;;6.65;1.48;;;9.70;99.90;;;;;;7379421;19;20028;-62
2024/04/24 09:48:30;;;;;;;4.45;1.17;;;9.50;99.90;;;;;;7373120;19;20014;-62
2024/04/24 09:50:56;;;;;;;4.70;1.05;;;8.70;1.00;;;;;;7381229;19;20014;-63
2024/04/24 09:53:23;;;;;;;5.95;1.80;;;8.20;28.10;;;;;;7379870;19;20444;-62
2024/04/24 09:56:02;;;;;;;5.50;1.25;;;8.20;99.90;;;;;;7383047;19;20022;-63
2024/04/24 09:58:32;;;;;;;5.22;1.60;;;8.20;1.00;;;;;;7374370;19;20043;-62
2024/04/24 10:01:03;;;;;;;8.23;1.75;;;8.30;1.00;;;;;;7374069;19;20014;-63
2024/04/24 10:03:35;;;;;;;4.23;1.23;;;9.50;99.90;;;;;;7376527;19;20879;-63
2024/04/24 10:06:05;;;;;;;5.07;1.33;;;9.90;1.00;;;;;;7378159;19;20018;-63
2024/04/24 10:08:36;;;;;;;3.63;1.00;;;10.10;99.90;;;;;;7372845;19;20015;-63
2024/04/24 10:11:05;;;;;;;4.03;0.82;;;9.80;1.00;;;;;;7381091;19;20010;-63
2024/04/24 10:13:36;;;;;;;3.08;0.95;;;9.60;80.80;;;;;;7379192;19;20011;-65
2024/04/24 10:16:04;;;;;;;4.65;1.10;;;8.90;1.00;;;;;;7393635;19;20019;-63
2024/04/24 10:18:33;;;;;;;4.80;1.27;;;8.70;99.90;;;;;;7383482;19;20055;-63
2024/04/24 10:20:59;;;;;;;1.13;0.60;;;8.60;99.90;;;;;;7376947;19;20018;-63
2024/04/24 10:23:29;;;;;;;4.10;0.90;;;8.60;99.90;;;;;;7378445;19;20045;-63
2024/04/24 10:25:56;;;;;;;4.50;1.35;;;8.70;99.90;;;;;;7378877;19;20018;-63
2024/04/24 10:28:24;;;;;;;5.20;1.23;;;9.20;1.00;;;;;;7378131;19;20021;-63
2024/04/24 10:30:53;;;;;;;2.30;1.00;;;9.20;99.90;;;;;;7373868;19;20355;-63
2024/04/24 10:33:25;;;;;;;7.25;1.25;;;9.10;99.90;;;;;;7391638;19;20578;-63
2024/04/24 10:35:51;;;;;;;5.45;1.15;;;9.20;99.90;;;;;;7378307;19;20023;-62
2024/04/24 10:38:17;;;;;;;5.95;0.90;;;8.90;99.90;;;;;;7378248;19;20051;-64
2024/04/24 10:40:48;;;;;;;3.15;0.88;;;9.20;99.90;;;;;;7376179;19;20070;-63
2024/04/24 10:43:15;;;;;;;3.47;0.85;;;9.40;99.90;;;;;;7377674;19;20024;-63
2024/04/24 10:45:42;;;;;;;2.78;0.50;;;9.50;99.90;;;;;;7375051;19;20899;-63
2024/04/24 10:48:12;;;;;;;1.50;0.70;;;10.50;99.90;;;;;;7379330;19;20015;-63
2024/04/24 10:50:41;;;;;;;2.05;0.65;;;11.50;99.90;;;;;;7375011;19;20019;-63
2024/04/24 10:53:12;;;;;;;1.88;0.85;;;12.20;99.90;;;;;;7375694;19;20010;-64
2024/04/24 10:55:56;;;;;;;4.95;1.20;;;13.00;99.90;;;;;;7375831;19;20014;-64
2024/04/24 10:58:22;;;;;;;5.40;0.90;;;12.90;99.90;;;;;;7373400;19;20010;-64
2024/04/24 11:00:49;;;;;;;2.80;0.70;;;13.50;25.10;;;;;;7374411;19;20131;-65
2024/04/24 11:03:17;;;;;;;1.33;0.57;;;13.20;99.90;;;;;;7376709;19;20014;-67
2024/04/24 11:05:43;;;;;;;3.67;0.60;;;13.50;1.00;;;;;;7372337;19;20022;-64
2024/04/24 11:08:15;;;;;;;4.68;0.80;;;13.00;24.20;;;;;;7375383;19;20019;-64
2024/04/24 11:10:51;;;;;;;2.95;0.82;;;12.80;1.00;;;;;;7374247;19;20018;-64
2024/04/24 11:13:17;;;;;;;3.85;0.75;;;12.60;1.00;;;;;;7374755;19;20014;-63
2024/04/24 11:15:43;;;;;;;3.30;0.88;;;12.10;1.00;;;;;;7374606;19;20022;-64
2024/04/24 11:18:13;;;;;;;4.30;1.17;;;11.50;1.00;;;;;;7372974;19;20022;-64
2024/04/24 11:20:40;;;;;;;2.58;0.65;;;10.60;49.30;;;;;;7371754;19;20019;-64
2024/04/24 11:23:10;;;;;;;2.28;0.50;;;9.90;88.80;;;;;;7377404;19;20010;-63
2024/04/24 11:25:46;;;;;;;1.23;0.65;;;9.70;99.90;;;;;;7381357;19;20010;-64
2024/04/24 11:28:20;;;;;;;2.67;0.90;;;10.80;99.90;;;;;;7383243;19;20037;-65
2024/04/24 11:30:47;;;;;;;2.08;0.73;;;11.00;99.90;;;;;;7380381;19;20014;-65
2024/04/24 11:33:14;;;;;;;2.45;1.15;;;11.30;99.90;;;;;;7382862;19;20446;-63
2024/04/24 11:35:42;;;;;;;2.83;0.70;;;11.30;99.90;;;;;;7374513;19;20010;-64
2024/04/24 11:38:12;;;;;;;2.13;0.70;;;12.20;99.90;;;;;;7377471;19;20018;-64
2024/04/24 11:40:41;;;;;;;1.75;0.30;;;13.20;99.90;;;;;;7381958;19;20023;-64
2024/04/24 11:43:08;;;;;;;3.42;0.55;;;13.50;2.00;;;;;;7378473;19;20060;-64
2024/04/24 11:45:35;;;;;;;1.52;0.50;;;13.80;1.00;;;;;;7373290;19;20757;-63
2024/04/24 11:48:03;;;;;;;3.63;0.77;;;13.70;1.00;;;;;;7382226;19;20376;-64
2024/04/24 11:50:30;;;;;;;3.10;0.60;;;13.70;1.00;;;;;;7381250;19;20045;-63
2024/04/24 11:52:59;;;;;;;2.42;0.90;;;13.40;99.90;;;;;;7374088;19;20510;-64
2024/04/24 11:55:25;;;;;;;4.28;0.90;;;13.80;99.90;;;;;;7374193;19;20841;-64
2024/04/24 11:57:52;;;;;;;1.55;0.50;;;14.10;99.90;;;;;;7374785;19;20017;-64
2024/04/24 12:00:18;;;;;;;3.05;0.70;;;14.70;99.90;;;;;;7381727;19;20018;-64
2024/04/24 12:02:44;;;;;;;4.13;0.80;;;14.60;99.90;;;;;;7383566;19;20010;-65
2024/04/24 12:05:11;;;;;;;2.28;0.60;;;14.00;99.90;;;;;;7383815;19;20022;-64
2024/04/24 12:07:43;;;;;;;2.58;0.60;;;13.10;99.90;;;;;;7388136;19;20463;-63
2024/04/24 12:10:12;;;;;;;4.40;0.95;;;12.40;99.90;;;;;;7387661;19;20051;-63
2024/04/24 12:12:41;;;;;;;3.72;0.70;;;11.40;99.90;;;;;;7386614;19;20038;-63
2024/04/24 12:15:11;;;;;;;3.22;0.75;;;10.90;1.00;;;;;;7388139;19;20025;-63
2024/04/24 12:17:37;;;;;;;2.03;0.65;;;10.50;1.00;;;;;;7394245;19;20006;-64
2024/04/24 12:20:04;;;;;;;4.47;0.90;;;10.10;1.00;;;;;;7399414;19;20016;-64
2024/04/24 12:22:30;;;;;;;4.03;1.20;;;10.80;1.00;;;;;;7397387;19;20451;-64
2024/04/24 12:24:57;;;;;;;2.50;0.90;;;11.80;1.00;;;;;;7396672;19;20077;-64
2024/04/24 12:27:23;;;;;;;2.15;0.70;;;13.30;1.00;;;;;;7399649;19;20018;-64
2024/04/24 12:29:49;;;;;;;3.55;1.02;;;13.90;99.90;;;;;;7399411;19;20018;-64
2024/04/24 12:32:15;;;;;;;5.13;1.30;;;14.30;99.90;;;;;;7396368;19;20070;-65
2024/04/24 12:34:44;;;;;;;5.78;1.27;;;14.80;99.90;;;;;;7395437;19;20010;-65
2024/04/24 12:37:11;;;;;;;4.25;1.00;;;14.60;99.90;;;;;;7394759;19;20010;-64
2024/04/24 12:39:37;;;;;;;5.85;1.10;;;15.20;99.90;;;;;;7389578;19;20395;-64
2024/04/24 12:42:05;;;;;;;5.38;1.20;;;14.90;99.90;;;;;;7385464;19;20414;-64
2024/04/24 12:44:33;;;;;;;3.42;0.88;;;14.40;99.90;;;;;;7388917;19;20019;-65
2024/04/24 12:46:59;;;;;;;6.47;1.13;;;14.70;99.90;;;;;;7395018;19;20021;-64
2024/04/24 12:49:25;;;;;;;6.47;1.17;;;15.60;99.90;;;;;;7387666;19;20019;-64
2024/04/24 12:51:53;;;;;;;5.05;1.15;;;16.10;74.40;;;;;;7384988;19;20102;-64
2024/04/24 12:54:20;;;;;;;5.32;0.95;;;16.50;63.60;;;;;;7387875;19;20078;-63
2024/04/24 12:56:48;;;;;;;4.22;0.90;;;16.70;32.90;;;;;;7383502;19;20022;-63
2024/04/24 12:59:15;;;;;;;6.40;1.48;;;16.10;1.00;;;;;;7387769;19;20017;-63
2024/04/24 13:01:41;;;;;;;4.97;1.25;;;16.10;1.00;;;;;;7384509;19;20158;-63